Time;durP1;ratioP1;P1;durP2;ratioP2;P2;SDS_P1;SDS_P2;PMS_P1;PMS_P2;Temp;Humidity;BMP_temperature;BMP_pressure;BME280_temperature;BME280_humidity;BME280_pressure;Samples;Min_cycle;Max_cycle;Signal;HPM_P1;HPM_P2
2020/12/22 00:01:13;;;;;;;71.85;30.13;;;;;;;4.83;67.40;94837.44;5011941;28;20057;-75
2020/12/22 00:03:40;;;;;;;66.57;27.90;;;;;;;4.87;67.31;94829.81;5013452;28;20128;-75
2020/12/22 00:06:05;;;;;;;74.88;29.25;;;;;;;4.88;67.14;94841.19;5013056;28;20036;-76
2020/12/22 00:08:31;;;;;;;68.93;28.98;;;;;;;4.82;66.97;94838.53;5013421;28;20117;-76
2020/12/22 00:10:56;;;;;;;73.97;31.58;;;;;;;4.84;66.47;94838.25;5011809;28;20034;-75
2020/12/22 00:13:21;;;;;;;78.93;32.65;;;;;;;4.79;66.81;94833.72;5011742;28;20034;-75
2020/12/22 00:15:47;;;;;;;82.75;32.83;;;;;;;4.79;67.14;94843.50;5011938;28;20128;-75
2020/12/22 00:18:12;;;;;;;81.68;33.05;;;;;;;4.75;67.57;94847.69;5011948;28;20033;-75
2020/12/22 00:20:38;;;;;;;79.60;32.40;;;;;;;4.73;67.79;94841.88;5011592;28;20160;-75
2020/12/22 00:23:03;;;;;;;68.68;29.23;;;;;;;4.74;67.33;94840.81;5011674;28;20064;-75
2020/12/22 00:25:29;;;;;;;76.05;28.83;;;;;;;4.75;67.31;94840.56;5012721;28;20018;-75
2020/12/22 00:27:55;;;;;;;61.15;28.15;;;;;;;4.76;67.26;94851.91;5013008;28;20037;-75
2020/12/22 00:30:20;;;;;;;76.70;29.10;;;;;;;4.72;67.30;94856.94;5011712;28;20105;-75
2020/12/22 00:32:46;;;;;;;79.93;31.27;;;;;;;4.72;67.26;94845.53;5012196;28;20018;-75
2020/12/22 00:35:11;;;;;;;74.70;29.50;;;;;;;4.70;67.34;94847.63;5011475;28;20049;-75
2020/12/22 00:37:37;;;;;;;76.38;29.30;;;;;;;4.70;67.41;94850.28;5012402;28;20030;-76
2020/12/22 00:40:04;;;;;;;79.45;29.48;;;;;;;4.68;67.35;94855.00;5011171;28;20128;-76
2020/12/22 00:42:31;;;;;;;91.95;30.50;;;;;;;4.62;67.73;94862.91;5012498;28;20057;-75
2020/12/22 00:44:57;;;;;;;66.35;27.58;;;;;;;4.66;67.50;94855.28;5011024;28;20066;-74
2020/12/22 00:47:23;;;;;;;75.80;28.80;;;;;;;4.62;67.40;94855.00;5011152;28;20040;-75
2020/12/22 00:49:48;;;;;;;74.43;28.58;;;;;;;4.63;67.63;94853.13;5010802;28;20029;-75
2020/12/22 00:52:14;;;;;;;78.38;27.65;;;;;;;4.64;67.50;94846.81;5012524;28;20030;-75
2020/12/22 00:54:39;;;;;;;75.00;29.05;;;;;;;4.65;67.46;94850.25;5012231;28;20029;-75
2020/12/22 00:57:04;;;;;;;75.45;30.05;;;;;;;4.66;67.89;94852.66;5012210;28;20049;-75
2020/12/22 00:59:30;;;;;;;76.40;30.23;;;;;;;4.72;67.87;94853.47;5012258;28;20088;-75
2020/12/22 01:01:55;;;;;;;80.60;29.90;;;;;;;4.73;67.87;94847.16;5010766;28;20417;-75
2020/12/22 01:04:21;;;;;;;68.20;29.42;;;;;;;4.75;67.85;94850.34;5010933;28;20461;-75
2020/12/22 01:06:46;;;;;;;87.03;30.00;;;;;;;4.78;67.75;94845.34;5010585;28;20026;-76
2020/12/22 01:09:12;;;;;;;78.90;29.80;;;;;;;4.84;67.70;94843.53;5012108;28;20105;-75
2020/12/22 01:11:39;;;;;;;80.40;32.33;;;;;;;4.85;67.51;94849.63;5010721;28;20509;-75
2020/12/22 01:14:05;;;;;;;86.43;31.73;;;;;;;4.87;67.49;94844.88;5010641;28;20065;-75
2020/12/22 01:16:31;;;;;;;86.88;31.10;;;;;;;4.89;67.53;94840.94;5010723;28;20447;-76
2020/12/22 01:18:56;;;;;;;72.65;30.27;;;;;;;4.89;67.31;94840.94;5010362;28;20116;-76
2020/12/22 01:21:22;;;;;;;79.18;28.73;;;;;;;4.90;67.32;94842.53;5010899;28;20479;-76
2020/12/22 01:23:48;;;;;;;79.82;30.58;;;;;;;4.90;67.31;94842.53;5010474;28;20100;-76
2020/12/22 01:26:32;;;;;;;93.47;31.30;;;;;;;4.94;67.26;94845.47;5010514;28;20485;-76
2020/12/22 01:28:58;;;;;;;84.63;32.10;;;;;;;4.92;67.18;94845.69;5010329;28;20026;-76
2020/12/22 01:31:26;;;;;;;79.88;33.05;;;;;;;4.91;67.28;94846.75;5010307;28;20488;-75
2020/12/22 01:33:53;;;;;;;92.53;32.58;;;;;;;4.91;67.60;94849.41;5011456;28;20029;-76
2020/12/22 01:36:19;;;;;;;93.00;31.98;;;;;;;4.92;67.40;94840.41;5010271;28;20120;-76
2020/12/22 01:38:45;;;;;;;91.15;32.80;;;;;;;4.93;67.59;94844.66;5010275;28;20117;-76
2020/12/22 01:41:11;;;;;;;110.55;36.40;;;;;;;4.96;67.52;94838.88;5010284;28;20120;-76
2020/12/22 01:43:36;;;;;;;98.35;35.47;;;;;;;4.96;67.54;94832.78;5010109;28;20110;-76
2020/12/22 01:46:04;;;;;;;90.30;36.08;;;;;;;4.94;67.98;94842.81;5009170;28;20065;-75
2020/12/22 01:48:29;;;;;;;94.80;36.38;;;;;;;4.96;68.01;94824.88;5011486;28;20501;-76
2020/12/22 01:50:55;;;;;;;99.70;34.85;;;;;;;4.94;67.60;94835.69;5011167;28;20079;-76
2020/12/22 01:53:20;;;;;;;92.47;33.67;;;;;;;4.94;67.43;94838.31;5009985;28;20116;-76
2020/12/22 01:55:46;;;;;;;78.05;32.92;;;;;;;4.88;67.67;94841.97;5010088;28;20042;-76
2020/12/22 01:58:11;;;;;;;80.68;32.80;;;;;;;4.86;67.80;94830.06;5009715;28;20539;-76
2020/12/22 02:00:37;;;;;;;82.38;33.92;;;;;;;4.86;67.65;94830.88;5009865;28;20034;-76
2020/12/22 02:03:05;;;;;;;95.18;34.55;;;;;;;4.82;67.97;94832.41;5009588;28;20034;-76
2020/12/22 02:05:33;;;;;;;90.15;34.22;;;;;;;4.78;68.24;94841.91;5009807;28;20040;-75
2020/12/22 02:07:59;;;;;;;87.57;34.88;;;;;;;4.73;68.30;94840.03;5010869;28;20036;-76
2020/12/22 02:10:25;;;;;;;84.05;34.03;;;;;;;4.74;68.21;94838.16;5010983;28;20508;-76
2020/12/22 02:12:50;;;;;;;82.60;34.33;;;;;;;4.73;68.06;94824.16;5011046;28;20022;-75
2020/12/22 02:15:15;;;;;;;87.35;33.83;;;;;;;4.70;68.50;94823.88;5009517;28;20034;-76
2020/12/22 02:17:41;;;;;;;84.63;34.97;;;;;;;4.71;68.17;94833.41;5010858;28;20041;-75
2020/12/22 02:20:06;;;;;;;81.68;34.25;;;;;;;4.61;68.65;94829.63;5009407;28;20477;-76
2020/12/22 02:22:33;;;;;;;89.50;35.13;;;;;;;4.58;68.86;94827.50;5009726;28;20136;-75
2020/12/22 02:24:59;;;;;;;70.32;30.02;;;;;;;4.56;68.94;94836.69;5010795;28;20478;-75
2020/12/22 02:27:25;;;;;;;71.80;28.73;;;;;;;4.52;68.76;94820.56;5009419;28;20144;-75
2020/12/22 02:29:50;;;;;;;57.40;26.23;;;;;;;4.47;69.08;94825.78;5009512;28;20018;-75
2020/12/22 02:32:16;;;;;;;45.70;21.85;;;;;;;4.42;69.04;94829.19;5009090;28;20034;-75
2020/12/22 02:34:41;;;;;;;67.97;24.95;;;;;;;4.34;69.28;94820.94;5009404;28;20540;-75
2020/12/22 02:37:07;;;;;;;52.58;22.45;;;;;;;4.28;69.45;94824.59;5009339;28;20068;-74
2020/12/22 02:39:32;;;;;;;49.17;21.58;;;;;;;4.20;69.52;94823.19;5010630;28;20030;-75
2020/12/22 02:41:58;;;;;;;49.63;24.02;;;;;;;4.14;69.72;94822.31;5010459;28;20493;-75
2020/12/22 02:44:23;;;;;;;40.95;19.30;;;;;;;4.11;69.69;94814.09;5010425;28;20410;-75
2020/12/22 02:46:48;;;;;;;46.20;20.02;;;;;;;4.05;70.03;94818.56;5009281;28;20021;-75
2020/12/22 02:49:14;;;;;;;43.13;18.98;;;;;;;3.97;70.00;94819.00;5010450;28;20030;-75
2020/12/22 02:51:39;;;;;;;42.05;18.75;;;;;;;3.92;70.07;94814.44;5010354;28;20029;-75
2020/12/22 02:54:05;;;;;;;42.03;18.83;;;;;;;3.77;70.15;94815.06;5010571;28;20038;-75
2020/12/22 02:56:30;;;;;;;36.67;18.45;;;;;;;3.74;70.54;94806.84;5010445;28;20084;-75
2020/12/22 02:58:57;;;;;;;37.50;18.35;;;;;;;3.71;70.77;94810.00;5013303;28;20065;-75
2020/12/22 03:01:22;;;;;;;37.17;16.70;;;;;;;3.70;71.07;94813.66;5014440;28;20447;-75
2020/12/22 03:03:47;;;;;;;44.47;18.58;;;;;;;3.72;70.83;94811.56;5013272;28;20034;-75
2020/12/22 03:06:13;;;;;;;43.78;19.20;;;;;;;3.72;71.49;94807.09;5013138;28;20033;-75
2020/12/22 03:08:38;;;;;;;38.10;17.58;;;;;;;3.73;71.16;94815.81;5012866;28;20032;-75
2020/12/22 03:11:04;;;;;;;42.90;17.45;;;;;;;3.73;71.14;94810.56;5013018;28;20034;-75
2020/12/22 03:13:31;;;;;;;37.65;18.73;;;;;;;3.73;71.25;94810.56;5013310;28;20029;-75
2020/12/22 03:15:56;;;;;;;37.38;18.08;;;;;;;3.77;70.83;94812.44;5012682;28;20481;-75
2020/12/22 03:18:22;;;;;;;40.80;18.55;;;;;;;3.81;70.81;94802.19;5013160;28;20033;-75
2020/12/22 03:20:47;;;;;;;40.00;18.52;;;;;;;3.88;70.68;94804.63;5014011;28;20040;-75
2020/12/22 03:23:13;;;;;;;37.67;17.17;;;;;;;3.95;70.35;94795.50;5013003;28;20432;-74
2020/12/22 03:25:38;;;;;;;41.33;17.80;;;;;;;4.01;70.41;94791.88;5012986;28;20088;-75
2020/12/22 03:28:04;;;;;;;46.78;18.05;;;;;;;4.06;70.24;94790.31;5012541;28;20029;-75
2020/12/22 03:30:29;;;;;;;39.60;18.27;;;;;;;4.11;69.87;94791.19;5012665;28;20034;-75
2020/12/22 03:32:55;;;;;;;38.72;16.77;;;;;;;4.17;69.84;94787.53;5012431;28;20038;-75
2020/12/22 03:35:20;;;;;;;35.30;17.75;;;;;;;4.28;68.88;94787.63;5014024;28;20022;-74
2020/12/22 03:37:46;;;;;;;40.88;19.08;;;;;;;4.33;68.83;94788.44;5012461;28;20033;-75
2020/12/22 03:40:12;;;;;;;33.67;17.40;;;;;;;4.38;68.71;94793.78;5012639;28;20025;-75
2020/12/22 03:42:38;;;;;;;37.90;17.95;;;;;;;4.42;68.04;94794.09;5013704;28;20049;-75
2020/12/22 03:45:06;;;;;;;37.55;17.73;;;;;;;4.41;67.97;94789.84;5012183;28;20414;-75
2020/12/22 03:47:32;;;;;;;55.90;18.40;;;;;;;4.40;67.86;94793.53;5012443;28;20021;-75
2020/12/22 03:49:57;;;;;;;41.22;18.83;;;;;;;4.42;67.87;94796.72;5013477;28;20053;-74
2020/12/22 03:52:22;;;;;;;40.60;19.05;;;;;;;4.41;68.04;94792.47;5013673;28;20054;-75
2020/12/22 03:54:48;;;;;;;40.25;18.90;;;;;;;4.46;68.68;94797.00;5012125;28;20037;-75
2020/12/22 03:57:16;;;;;;;47.67;20.42;;;;;;;4.47;68.35;94786.19;5012179;28;20030;-75
2020/12/22 03:59:43;;;;;;;51.17;19.83;;;;;;;4.50;68.20;94775.16;5013527;28;20040;-75
2020/12/22 04:02:08;;;;;;;51.67;21.27;;;;;;;4.52;68.65;94790.72;5012039;28;20022;-75
2020/12/22 04:04:33;;;;;;;50.53;23.05;;;;;;;4.52;68.58;94785.44;5012167;28;20500;-75
2020/12/22 04:06:59;;;;;;;43.13;21.05;;;;;;;4.54;68.44;94783.34;5013195;28;20030;-74
2020/12/22 04:09:24;;;;;;;50.13;22.48;;;;;;;4.55;68.42;94782.31;5011388;28;20032;-75
2020/12/22 04:11:51;;;;;;;46.30;19.92;;;;;;;4.58;68.20;94782.59;5011693;28;20033;-76
2020/12/22 04:14:17;;;;;;;63.17;27.73;;;;;;;4.59;68.26;94789.47;5013032;28;20060;-75
2020/12/22 04:16:43;;;;;;;72.72;29.75;;;;;;;4.59;68.48;94784.19;5011889;28;20105;-74
2020/12/22 04:19:09;;;;;;;71.82;30.13;;;;;;;4.62;68.45;94778.41;5011553;28;20482;-75
2020/12/22 04:21:35;;;;;;;62.75;29.58;;;;;;;4.61;68.55;94787.38;5013171;28;20029;-75
2020/12/22 04:24:02;;;;;;;55.50;26.35;;;;;;;4.63;68.08;94774.72;5013171;28;20053;-75
2020/12/22 04:26:27;;;;;;;62.30;27.45;;;;;;;4.65;68.32;94784.22;5012964;28;20022;-75
2020/12/22 04:28:53;;;;;;;57.65;25.88;;;;;;;4.67;68.22;94790.06;5011585;28;20108;-75
2020/12/22 04:31:21;;;;;;;56.78;26.35;;;;;;;4.67;68.42;94800.63;5011396;28;20444;-74
2020/12/22 04:33:51;;;;;;;60.45;27.85;;;;;;;4.70;68.30;94785.06;5011473;28;20034;-74
2020/12/22 04:36:17;;;;;;;60.63;27.63;;;;;;;4.72;68.40;94790.09;5012475;28;20023;-74
2020/12/22 04:38:43;;;;;;;73.93;29.52;;;;;;;4.72;68.59;94795.38;5012801;28;20030;-74
2020/12/22 04:41:12;;;;;;;68.72;29.95;;;;;;;4.71;68.58;94793.78;5011074;28;20092;-75
2020/12/22 04:43:40;;;;;;;75.55;30.55;;;;;;;4.71;68.60;94791.16;5011160;28;20044;-74
2020/12/22 04:46:06;;;;;;;82.72;30.70;;;;;;;4.73;68.49;94789.06;5011217;28;20030;-74
2020/12/22 04:48:37;;;;;;;90.95;30.33;;;;;;;4.72;68.90;94787.44;5011060;28;20028;-74
2020/12/22 04:51:06;;;;;;;95.05;34.00;;;;;;;4.74;68.68;94793.25;5010995;28;20038;-75
2020/12/22 04:53:32;;;;;;;91.38;34.72;;;;;;;4.73;68.78;94789.84;5011127;28;20026;-75
2020/12/22 04:55:59;;;;;;;92.90;34.65;;;;;;;4.75;69.10;94793.03;5011099;28;20026;-74
2020/12/22 04:58:28;;;;;;;90.65;31.75;;;;;;;4.75;68.95;94797.50;5009663;28;20449;-74
2020/12/22 05:00:55;;;;;;;92.28;35.33;;;;;;;4.74;68.82;94799.38;5011130;28;20456;-74
2020/12/22 05:03:21;;;;;;;82.03;32.58;;;;;;;4.75;69.19;94802.78;5011274;28;20049;-74
2020/12/22 05:05:47;;;;;;;80.05;32.72;;;;;;;4.75;68.79;94803.59;5010994;28;20479;-75
2020/12/22 05:08:12;;;;;;;73.13;30.27;;;;;;;4.73;68.78;94808.31;5012061;28;20034;-74
2020/12/22 05:10:44;;;;;;;88.70;33.67;;;;;;;4.76;68.66;94804.38;5010704;28;20481;-75
2020/12/22 05:13:11;;;;;;;70.70;29.42;;;;;;;4.78;68.85;94804.91;5010580;28;20026;-75
2020/12/22 05:15:40;;;;;;;78.18;29.73;;;;;;;4.73;68.60;94802.25;5010532;28;20508;-74
2020/12/22 05:18:07;;;;;;;76.32;31.52;;;;;;;4.75;68.82;94802.78;5010439;28;20509;-73
2020/12/22 05:20:33;;;;;;;83.80;30.75;;;;;;;4.76;68.65;94805.19;5011763;28;20026;-75
2020/12/22 05:22:58;;;;;;;77.85;29.48;;;;;;;4.75;68.62;94789.59;5010657;28;20083;-74
2020/12/22 05:25:24;;;;;;;72.55;29.23;;;;;;;4.78;68.60;94794.34;5010463;28;20184;-74
2020/12/22 05:27:52;;;;;;;77.93;29.88;;;;;;;4.80;68.68;94792.25;5010421;28;20025;-74
2020/12/22 05:30:19;;;;;;;77.78;29.52;;;;;;;4.78;68.64;94802.28;5010731;28;20030;-74
2020/12/22 05:32:49;;;;;;;75.07;31.40;;;;;;;4.79;68.87;94796.75;5011547;28;20032;-74
2020/12/22 05:35:15;;;;;;;82.97;30.35;;;;;;;4.79;68.78;94793.31;5011668;28;20155;-73
2020/12/22 05:37:41;;;;;;;68.05;28.45;;;;;;;4.79;68.60;94793.31;5011407;28;20040;-74
2020/12/22 05:40:09;;;;;;;75.05;30.33;;;;;;;4.81;68.98;94794.66;5010274;28;20026;-73
2020/12/22 05:42:35;;;;;;;83.38;30.88;;;;;;;4.82;69.23;94803.38;5010487;28;20053;-74
2020/12/22 05:45:04;;;;;;;78.13;31.85;;;;;;;4.83;68.92;94802.31;5010407;28;20456;-74
2020/12/22 05:47:30;;;;;;;103.93;34.95;;;;;;;4.81;69.14;94801.78;5010325;28;20045;-74
2020/12/22 05:49:57;;;;;;;93.22;32.17;;;;;;;4.83;68.96;94804.97;5009903;28;20034;-74
2020/12/22 05:52:27;;;;;;;73.78;32.22;;;;;;;4.85;68.88;94810.78;5009862;28;20037;-75
2020/12/22 05:54:54;;;;;;;85.18;32.55;;;;;;;4.84;68.76;94811.81;5010178;28;20470;-80
2020/12/22 05:57:25;;;;;;;86.20;33.30;;;;;;;4.83;68.73;94815.53;5010170;28;20096;-79
2020/12/22 05:59:52;;;;;;;105.38;34.05;;;;;;;4.82;68.82;94816.56;5009792;28;20026;-79
2020/12/22 06:02:31;;;;;;;83.35;30.77;;;;;;;4.80;69.15;94816.03;5011298;28;20487;-79
2020/12/22 06:04:58;;;;;;;82.90;31.90;;;;;;;4.76;69.01;94821.03;5009778;28;20036;-80
2020/12/22 06:07:24;;;;;;;80.88;31.17;;;;;;;4.76;69.20;94807.00;5011173;28;20099;-79
2020/12/22 06:09:50;;;;;;;84.22;32.72;;;;;;;4.77;69.15;94809.41;5010963;28;20029;-80
2020/12/22 06:12:16;;;;;;;93.40;32.33;;;;;;;4.79;69.36;94815.25;5009692;28;20065;-80
2020/12/22 06:14:52;;;;;;;79.93;32.63;;;;;;;4.78;69.14;94802.28;5009616;28;20022;-80
2020/12/22 06:17:19;;;;;;;79.13;28.90;;;;;;;4.77;69.40;94803.34;5009560;28;20032;-80
2020/12/22 06:19:45;;;;;;;68.88;31.42;;;;;;;4.78;69.38;94808.38;5010837;28;20021;-79
2020/12/22 06:22:18;;;;;;;79.43;30.08;;;;;;;4.83;69.09;94807.59;5009383;28;20022;-79
2020/12/22 06:24:45;;;;;;;84.65;34.22;;;;;;;4.84;68.83;94801.25;5009572;28;20563;-79
2020/12/22 06:27:13;;;;;;;77.28;31.40;;;;;;;4.84;69.21;94806.53;5009433;28;20029;-79
2020/12/22 06:29:44;;;;;;;79.80;31.30;;;;;;;4.83;68.93;94804.97;5010665;28;20025;-79
2020/12/22 06:32:29;;;;;;;80.65;31.65;;;;;;;4.88;68.77;94802.34;5010302;28;20041;-79
2020/12/22 06:35:29;;;;;;;83.65;30.80;;;;;;;4.91;68.50;94796.56;5009464;28;20074;-79
2020/12/22 06:37:55;;;;;;;83.88;32.10;;;;;;;4.91;68.59;94793.13;5007946;28;20041;-79
2020/12/22 06:40:55;;;;;;;66.95;29.15;;;;;;;4.95;68.79;94792.38;5009395;28;20036;-80
2020/12/22 06:43:43;;;;;;;71.70;29.40;;;;;;;4.99;68.78;94790.03;5009430;28;20549;-80
2020/12/22 06:46:30;;;;;;;75.20;31.02;;;;;;;4.99;68.71;94788.16;5009400;28;20493;-80
2020/12/22 06:48:57;;;;;;;81.50;33.63;;;;;;;5.02;68.37;94782.34;5008922;28;20038;-79
2020/12/22 06:51:31;;;;;;;69.13;28.75;;;;;;;5.07;68.16;94783.44;5010512;28;20030;-80
2020/12/22 06:53:59;;;;;;;71.35;27.50;;;;;;;5.11;67.95;94782.69;5010380;28;20040;-79
2020/12/22 06:56:52;;;;;;;72.20;27.10;;;;;;;5.14;67.83;94787.47;5009287;28;20033;-80
2020/12/22 06:59:40;;;;;;;60.00;26.67;;;;;;;5.17;67.48;94783.50;5009080;28;20046;-79
2020/12/22 07:02:27;;;;;;;68.07;25.60;;;;;;;5.21;67.26;94789.88;5002664;28;20030;-80
2020/12/22 07:04:53;;;;;;;56.85;24.75;;;;;;;5.25;66.99;94780.41;5009084;28;20455;-80
2020/12/22 07:07:18;;;;;;;67.75;26.13;;;;;;;5.26;67.13;94787.25;5010189;28;20037;-80
2020/12/22 07:09:44;;;;;;;59.40;24.90;;;;;;;5.29;66.84;94785.94;5008974;28;20458;-79
2020/12/22 07:12:09;;;;;;;64.05;24.80;;;;;;;5.30;66.49;94785.69;5008874;28;20034;-79
2020/12/22 07:14:47;;;;;;;51.78;23.25;;;;;;;5.33;66.16;94787.84;5010359;28;20030;-80
2020/12/22 07:17:13;;;;;;;55.75;24.13;;;;;;;5.34;66.10;94781.50;5010259;28;20030;-79
2020/12/22 07:19:44;;;;;;;52.42;23.73;;;;;;;5.39;66.06;94776.25;5010777;28;20473;-75
2020/12/22 07:22:09;;;;;;;53.58;21.80;;;;;;;5.43;65.80;94785.25;5005216;28;20033;-75
2020/12/22 07:24:36;;;;;;;51.17;23.02;;;;;;;5.47;65.80;94777.56;5008870;28;20040;-75
2020/12/22 07:27:07;;;;;;;55.58;22.38;;;;;;;5.51;65.67;94783.16;5008836;28;20034;-74
2020/12/22 07:29:36;;;;;;;50.67;21.05;;;;;;;5.53;65.35;94783.69;4998922;28;20026;-75
2020/12/22 07:32:03;;;;;;;57.33;22.00;;;;;;;5.54;65.17;94782.66;5008484;28;20026;-75
2020/12/22 07:34:28;;;;;;;47.78;19.73;;;;;;;5.58;65.10;94786.38;5008475;28;20026;-74
2020/12/22 07:37:08;;;;;;;35.60;18.30;;;;;;;5.61;64.47;94783.97;5010047;28;20037;-75
2020/12/22 07:39:34;;;;;;;42.38;18.73;;;;;;;5.65;64.08;94781.63;5008952;28;20030;-75
2020/12/22 07:42:16;;;;;;;41.58;18.83;;;;;;;5.67;64.22;94784.78;5010048;28;20078;-75
2020/12/22 07:44:42;;;;;;;41.95;17.70;;;;;;;5.73;64.46;94781.13;5011813;28;20056;-74
2020/12/22 07:47:09;;;;;;;38.67;18.02;;;;;;;5.76;64.31;94783.25;5012551;28;20040;-74
2020/12/22 07:49:37;;;;;;;40.83;18.65;;;;;;;5.79;64.16;94780.06;5012360;28;20382;-74
2020/12/22 07:52:04;;;;;;;47.88;19.88;;;;;;;5.86;63.72;94774.53;5012184;28;20037;-74
2020/12/22 07:54:29;;;;;;;47.10;20.25;;;;;;;5.89;63.74;94771.38;5013221;28;20029;-74
2020/12/22 07:56:59;;;;;;;48.08;17.83;;;;;;;5.88;63.90;94782.22;5012114;28;20481;-75
2020/12/22 07:59:28;;;;;;;40.53;15.20;;;;;;;5.91;63.20;94781.72;5013007;28;20033;-74
2020/12/22 08:01:54;;;;;;;40.05;15.13;;;;;;;5.93;62.89;94787.53;5011835;28;20022;-74
2020/12/22 08:04:30;;;;;;;33.83;14.85;;;;;;;5.75;62.80;94786.94;5011854;28;20092;-75
2020/12/22 08:06:59;;;;;;;33.15;13.25;;;;;;;5.87;62.48;94791.22;5013025;28;20034;-75
2020/12/22 08:09:33;;;;;;;37.17;17.30;;;;;;;5.83;62.69;94798.88;5011621;28;20026;-74
2020/12/22 08:12:03;;;;;;;40.25;17.58;;;;;;;5.81;62.88;94787.75;5011520;28;20041;-74
2020/12/22 08:14:32;;;;;;;39.95;15.50;;;;;;;5.84;62.70;94800.44;5011666;28;20037;-74
2020/12/22 08:17:01;;;;;;;51.92;18.00;;;;;;;5.79;62.62;94793.31;5011709;28;20107;-74
2020/12/22 08:19:37;;;;;;;54.20;22.38;;;;;;;5.73;63.69;94794.34;5012849;28;20037;-74
2020/12/22 08:22:06;;;;;;;56.08;23.65;;;;;;;5.77;63.95;94789.34;5011621;28;20170;-74
2020/12/22 08:24:36;;;;;;;52.83;23.38;;;;;;;5.79;63.58;94790.66;5011428;28;20069;-75
2020/12/22 08:27:04;;;;;;;51.13;22.80;;;;;;;5.77;63.67;94782.19;5012759;28;20115;-75
2020/12/22 08:29:29;;;;;;;49.03;22.48;;;;;;;5.75;63.38;94762.34;5011307;28;20508;-75
2020/12/22 08:31:59;;;;;;;49.90;23.27;;;;;;;5.73;64.41;94757.31;5012749;28;20030;-75
2020/12/22 08:34:24;;;;;;;36.78;16.77;;;;;;;5.77;64.32;94749.66;5012860;28;20033;-75
2020/12/22 08:36:50;;;;;;;30.52;14.73;;;;;;;5.81;63.73;94751.50;5011069;28;20401;-75
2020/12/22 08:39:21;;;;;;;28.92;12.88;;;;;;;5.95;62.63;94746.56;5012532;28;20033;-75
2020/12/22 08:41:49;;;;;;;40.80;15.90;;;;;;;6.03;62.09;94742.59;5010953;28;20026;-75
2020/12/22 08:44:15;;;;;;;35.67;17.95;;;;;;;6.03;61.75;94750.53;5011100;28;20034;-75
2020/12/22 08:46:42;;;;;;;45.55;16.23;;;;;;;6.12;62.08;94753.47;5010984;28;20030;-75
2020/12/22 08:49:21;;;;;;;31.58;13.45;;;;;;;6.33;61.40;94755.09;5011093;28;20507;-75
2020/12/22 08:51:49;;;;;;;32.03;14.15;;;;;;;6.51;60.06;94763.53;5010932;28;20061;-75
2020/12/22 08:54:15;;;;;;;30.05;14.20;;;;;;;6.62;59.65;94771.22;5010765;28;20029;-75
2020/12/22 08:56:41;;;;;;;30.65;11.77;;;;;;;6.58;59.04;94769.38;5010833;28;20036;-74
2020/12/22 08:59:09;;;;;;;26.40;12.57;;;;;;;6.48;59.04;94775.47;5010697;28;20056;-75
2020/12/22 09:01:43;;;;;;;35.28;14.13;;;;;;;6.32;59.84;94776.53;5010800;28;20022;-74
2020/12/22 09:04:10;;;;;;;38.55;14.45;;;;;;;6.24;60.57;94764.59;5010824;28;20571;-74
2020/12/22 09:06:45;;;;;;;31.10;13.60;;;;;;;6.19;60.59;94770.69;5010920;28;20014;-74
2020/12/22 09:09:22;;;;;;;26.80;13.70;;;;;;;6.17;60.60;94764.06;5012009;28;20038;-74
2020/12/22 09:11:49;;;;;;;52.30;20.73;;;;;;;6.11;61.43;94765.91;5010620;28;20026;-74
2020/12/22 09:14:15;;;;;;;57.28;23.48;;;;;;;5.87;63.02;94770.06;5010629;28;20516;-74
2020/12/22 09:16:48;;;;;;;59.83;22.77;;;;;;;5.87;62.45;94767.41;5011797;28;20465;-75
2020/12/22 09:19:14;;;;;;;44.90;20.48;;;;;;;5.75;62.86;94763.13;5011895;28;20022;-74
2020/12/22 09:21:40;;;;;;;52.25;20.50;;;;;;;5.70;63.32;94757.03;5011737;28;20543;-74
2020/12/22 09:24:06;;;;;;;46.72;23.48;;;;;;;5.54;63.87;94754.34;5010293;28;20108;-74
2020/12/22 09:26:32;;;;;;;62.60;25.80;;;;;;;5.51;64.33;94767.28;5010256;28;20429;-74
2020/12/22 09:28:57;;;;;;;57.97;26.30;;;;;;;5.30;64.64;94755.84;5010044;28;20113;-74
2020/12/22 09:31:24;;;;;;;56.55;25.85;;;;;;;5.24;65.41;94752.38;5010115;28;20068;-74
2020/12/22 09:33:50;;;;;;;67.72;28.85;;;;;;;5.23;65.72;94750.75;5010295;28;20032;-76
2020/12/22 09:36:15;;;;;;;69.10;27.63;;;;;;;5.33;65.30;94750.00;5010212;28;20026;-74
2020/12/22 09:38:41;;;;;;;70.50;31.02;;;;;;;5.38;65.34;94760.63;5011494;28;20040;-74
2020/12/22 09:41:06;;;;;;;84.95;33.63;;;;;;;5.29;66.02;94746.28;5010151;28;20169;-74
2020/12/22 09:43:32;;;;;;;82.32;34.30;;;;;;;5.31;65.99;94744.19;5009724;28;20050;-74
2020/12/22 09:45:57;;;;;;;72.97;34.05;;;;;;;5.39;65.66;94738.41;5009707;28;20106;-75
2020/12/22 09:48:22;;;;;;;94.00;38.92;;;;;;;5.38;66.00;94744.75;5009825;28;20024;-74
2020/12/22 09:50:48;;;;;;;86.05;38.33;;;;;;;5.28;66.51;94742.88;5010018;28;20026;-75
2020/12/22 09:53:13;;;;;;;84.35;36.83;;;;;;;5.37;66.55;94746.63;5011132;28;20040;-74
2020/12/22 09:55:39;;;;;;;82.32;36.55;;;;;;;5.52;65.80;94742.44;5009851;28;20030;-75
2020/12/22 09:58:05;;;;;;;80.75;35.40;;;;;;;5.61;65.35;94739.00;5010065;28;20038;-75
2020/12/22 10:00:30;;;;;;;95.65;35.88;;;;;;;5.55;65.10;94747.19;5011011;28;20030;-75
2020/12/22 10:02:56;;;;;;;86.90;36.58;;;;;;;5.40;65.76;94740.81;5009891;28;20425;-75
2020/12/22 10:05:21;;;;;;;87.00;35.63;;;;;;;5.31;65.85;94747.66;5010845;28;20410;-75
2020/12/22 10:07:47;;;;;;;87.10;39.90;;;;;;;5.27;66.47;94740.47;5010227;28;20565;-75
2020/12/22 10:10:12;;;;;;;90.28;39.38;;;;;;;5.24;66.64;94736.50;5011112;28;20041;-75
2020/12/22 10:12:38;;;;;;;93.28;40.70;;;;;;;5.28;66.44;94727.00;5009327;28;20387;-75
2020/12/22 10:15:03;;;;;;;93.93;41.55;;;;;;;5.42;66.21;94725.47;5009332;28;20041;-75
2020/12/22 10:17:29;;;;;;;92.10;43.55;;;;;;;5.53;66.20;94712.28;5010703;28;20080;-75
2020/12/22 10:19:54;;;;;;;87.05;41.00;;;;;;;5.68;65.98;94724.75;5009468;28;20425;-75
2020/12/22 10:22:20;;;;;;;92.90;46.25;;;;;;;5.76;65.69;94711.81;5009512;28;20052;-75
2020/12/22 10:24:45;;;;;;;104.07;42.85;;;;;;;5.97;64.81;94706.59;5009241;28;20456;-75
2020/12/22 10:27:10;;;;;;;86.70;40.40;;;;;;;6.15;64.24;94719.31;5009341;28;20462;-75
2020/12/22 10:29:36;;;;;;;93.53;39.97;;;;;;;6.30;63.59;94715.09;5009055;28;20042;-75
2020/12/22 10:32:01;;;;;;;98.55;44.78;;;;;;;6.38;63.26;94711.91;5009414;28;20072;-75
2020/12/22 10:34:27;;;;;;;88.95;40.08;;;;;;;6.38;63.25;94706.63;5009247;28;20041;-75
2020/12/22 10:36:52;;;;;;;78.18;38.55;;;;;;;6.48;63.46;94711.91;5009402;28;20033;-75
2020/12/22 10:39:18;;;;;;;86.72;36.30;;;;;;;6.62;61.55;94712.94;5010749;28;20413;-75
2020/12/22 10:41:43;;;;;;;87.53;39.40;;;;;;;6.70;61.40;94708.19;5008913;28;20026;-75
2020/12/22 10:44:08;;;;;;;79.53;37.17;;;;;;;6.75;60.38;94708.94;5009255;28;20416;-75
2020/12/22 10:46:34;;;;;;;86.30;39.80;;;;;;;6.73;61.06;94705.00;5008974;28;20033;-76
2020/12/22 10:49:00;;;;;;;77.60;37.63;;;;;;;6.62;60.95;94707.66;5009277;28;20119;-75
2020/12/22 10:51:25;;;;;;;78.72;38.25;;;;;;;6.54;61.29;94700.25;5009041;28;20034;-75
2020/12/22 10:53:51;;;;;;;94.57;40.92;;;;;;;6.43;61.74;94717.19;5009147;28;20404;-75
2020/12/22 10:56:17;;;;;;;84.22;40.13;;;;;;;6.35;62.03;94715.91;5010924;28;20040;-74
2020/12/22 10:58:44;;;;;;;84.80;39.28;;;;;;;6.33;62.56;94703.97;5009912;28;20099;-74
2020/12/22 11:01:14;;;;;;;84.78;38.38;;;;;;;6.36;62.90;94693.63;5009080;28;20041;-75
2020/12/22 11:03:39;;;;;;;93.60;37.65;;;;;;;6.46;62.76;94692.06;5010055;28;20030;-74
2020/12/22 11:08:44;;;;;;;86.47;38.70;;;;;;;6.71;61.96;94677.97;5010440;28;20473;-74
2020/12/22 11:11:09;;;;;;;89.45;37.60;;;;;;;6.86;61.66;94670.00;5008624;28;20030;-74
2020/12/22 11:13:36;;;;;;;83.15;39.17;;;;;;;6.98;60.86;94674.97;5008832;28;20032;-74
2020/12/22 11:16:02;;;;;;;76.72;36.67;;;;;;;7.08;61.28;94664.34;5010068;28;20469;-74
2020/12/22 11:18:27;;;;;;;78.00;37.10;;;;;;;7.17;60.59;94669.91;5012078;28;20104;-75
2020/12/22 11:20:53;;;;;;;75.53;35.47;;;;;;;7.18;60.75;94661.66;5013060;28;20026;-74
2020/12/22 11:23:18;;;;;;;83.28;40.50;;;;;;;7.16;60.55;94657.69;5012661;28;20065;-74
2020/12/22 11:25:44;;;;;;;84.22;38.47;;;;;;;7.29;60.44;94654.47;5013981;28;20025;-74
2020/12/22 11:28:13;;;;;;;77.55;37.20;;;;;;;7.42;60.10;94651.19;5013804;28;20037;-75